Time;durP1;ratioP1;P1;durP2;ratioP2;P2;SDS_P1;SDS_P2;PMS_P1;PMS_P2;Temp;Humidity;BMP_temperature;BMP_pressure;BME280_temperature;BME280_humidity;BME280_pressure;Samples;Min_cycle;Max_cycle;Signal;HPM_P1;HPM_P2
2021/04/06 00:00:44;;;;;;;20.97;11.20;;;;;;;2.28;61.21;98817.50;1731451;82;21661;-74
2021/04/06 00:03:17;;;;;;;21.93;11.30;;;;;;;2.27;61.24;98810.58;1770764;80;21321;-72
2021/04/06 00:05:49;;;;;;;24.82;11.18;;;;;;;2.27;61.41;98817.06;1712557;82;21178;-74
2021/04/06 00:08:16;;;;;;;19.90;11.30;;;;;;;2.26;61.48;98818.82;1740026;82;21174;-73
2021/04/06 00:10:51;;;;;;;23.27;11.35;;;;;;;2.23;61.52;98812.41;1713273;82;21214;-73
2021/04/06 00:13:19;;;;;;;23.07;11.22;;;;;;;2.24;62.13;98820.59;1739889;82;21178;-73
2021/04/06 00:15:47;;;;;;;25.57;11.20;;;;;;;2.23;62.23;98815.01;1713326;82;22370;-72
2021/04/06 00:18:16;;;;;;;20.30;10.53;;;;;;;2.23;62.14;98816.31;1713005;82;21158;-74
2021/04/06 00:20:44;;;;;;;25.60;10.53;;;;;;;2.22;62.62;98815.88;1739868;82;21202;-73
2021/04/06 00:23:13;;;;;;;20.37;9.63;;;;;;;2.20;63.51;98815.06;1739916;81;21215;-74
2021/04/06 00:25:43;;;;;;;22.48;10.55;;;;;;;2.19;64.04;98812.52;1739970;82;21151;-75
2021/04/06 00:28:16;;;;;;;23.85;11.08;;;;;;;2.16;63.57;98813.42;1739848;82;21201;-75
2021/04/06 00:30:48;;;;;;;24.35;11.10;;;;;;;2.13;63.23;98807.02;1713507;82;21226;-73
2021/04/06 00:33:30;;;;;;;17.90;9.80;;;;;;;2.12;63.29;98805.73;1739753;81;21190;-73
2021/04/06 00:36:00;;;;;;;17.35;10.45;;;;;;;2.08;63.13;98799.78;1739905;82;21226;-74
2021/04/06 00:38:35;;;;;;;22.02;11.45;;;;;;;2.12;63.17;98804.02;1740066;82;21831;-75
2021/04/06 00:41:07;;;;;;;21.85;11.35;;;;;;;2.14;63.22;98810.45;1739744;82;21435;-72
2021/04/06 00:43:38;;;;;;;19.70;10.65;;;;;;;2.12;63.51;98797.53;1739634;82;21202;-73
2021/04/06 00:46:20;;;;;;;21.37;11.08;;;;;;;2.11;64.22;98795.80;1739773;82;21170;-73
2021/04/06 00:48:52;;;;;;;18.53;9.67;;;;;;;2.10;64.20;98796.70;1739991;81;21677;-74
2021/04/06 00:51:21;;;;;;;24.37;10.80;;;;;;;2.06;65.00;98797.66;1713882;82;21167;-73
2021/04/06 00:54:02;;;;;;;24.60;11.93;;;;;;;2.05;64.52;98792.08;1739899;82;21598;-73
2021/04/06 00:56:38;;;;;;;21.87;12.05;;;;;;;2.02;64.96;98786.94;1739929;82;21186;-74
2021/04/06 00:59:09;;;;;;;25.00;11.78;;;;;;;1.97;64.56;98782.30;1739909;82;21178;-74
2021/04/06 01:01:43;;;;;;;23.15;11.78;;;;;;;1.92;64.69;98777.67;1740031;82;21151;-73
2021/04/06 01:04:14;;;;;;;24.20;12.10;;;;;;;1.90;65.08;98786.78;1739876;81;21167;-73
2021/04/06 01:07:12;;;;;;;22.07;11.88;;;;;;;1.88;64.96;98785.51;1739961;82;21818;-73
2021/04/06 01:09:47;;;;;;;22.45;11.90;;;;;;;1.85;65.38;98784.75;1739760;82;21211;-73
2021/04/06 01:12:25;;;;;;;26.42;12.55;;;;;;;1.82;66.37;98790.87;1739961;82;21135;-72
2021/04/06 01:14:55;;;;;;;26.23;12.13;;;;;;;1.80;66.86;98791.80;1739636;82;21162;-72
2021/04/06 01:17:32;;;;;;;26.15;12.65;;;;;;;1.78;66.39;98786.63;1739820;81;21175;-71
2021/04/06 01:20:08;;;;;;;24.72;12.45;;;;;;;1.75;66.12;98785.83;1739707;82;22365;-72
2021/04/06 01:22:38;;;;;;;27.13;12.50;;;;;;;1.75;66.13;98790.60;1744246;79;21169;-73
2021/04/06 01:25:07;;;;;;;31.87;14.90;;;;;;;1.73;65.98;98789.78;1750661;81;21212;-72
2021/04/06 01:27:34;;;;;;;33.05;16.27;;;;;;;1.72;66.21;98789.80;1749955;82;21564;-72
2021/04/06 01:30:04;;;;;;;33.35;15.28;;;;;;;1.72;66.25;98789.35;1750321;82;21173;-73
2021/04/06 01:32:32;;;;;;;38.30;15.70;;;;;;;1.70;66.63;98787.23;1750345;82;22177;-70
2021/04/06 01:35:00;;;;;;;38.75;17.98;;;;;;;1.67;66.47;98789.45;1750095;80;21225;-72
2021/04/06 01:37:28;;;;;;;38.20;17.25;;;;;;;1.64;67.12;98788.69;1750202;82;21177;-71
2021/04/06 01:39:58;;;;;;;38.02;17.55;;;;;;;1.62;67.59;98787.86;1750057;82;21172;-73
2021/04/06 01:42:30;;;;;;;43.40;18.42;;;;;;;1.57;67.80;98780.18;1750295;82;21169;-72
2021/04/06 01:44:58;;;;;;;39.05;17.23;;;;;;;1.57;67.56;98781.48;1750213;81;21594;-72
2021/04/06 01:47:26;;;;;;;42.95;16.87;;;;;;;1.58;67.64;98783.63;1753078;79;21157;-72
2021/04/06 01:49:56;;;;;;;36.05;14.43;;;;;;;1.58;67.94;98783.63;1762180;81;21922;-71
2021/04/06 01:52:27;;;;;;;30.57;13.83;;;;;;;1.61;67.46;98784.84;1762465;81;21166;-74
2021/04/06 01:55:03;;;;;;;25.48;13.08;;;;;;;1.59;67.44;98782.30;1762294;81;21153;-73
2021/04/06 01:57:35;;;;;;;;;;;;;;;1.61;67.25;98786.14;1765015;81;21277;-75
2021/04/06 02:00:03;;;;;;;37.03;16.67;;;;;;;1.62;67.43;98789.16;1761621;81;20279;-73
2021/04/06 02:02:28;;;;;;;43.23;19.85;;;;;;;1.63;67.44;98790.44;1762440;81;21221;-74
2021/04/06 02:04:58;;;;;;;45.60;17.98;;;;;;;1.66;67.61;98790.80;1753647;81;21172;-74
2021/04/06 02:07:30;;;;;;;40.00;16.37;;;;;;;1.66;67.80;98790.80;1733884;82;21135;-73
2021/04/06 02:10:01;;;;;;;44.63;18.15;;;;;;;1.66;67.52;98786.91;1733797;82;21391;-73
2021/04/06 02:12:28;;;;;;;45.17;19.05;;;;;;;1.67;68.04;98786.02;1733848;82;21635;-74
2021/04/06 02:14:57;;;;;;;40.55;16.48;;;;;;;1.66;67.61;98782.57;1733760;82;21199;-73
2021/04/06 02:17:27;;;;;;;38.78;16.55;;;;;;;1.68;68.43;98785.98;1733796;82;21630;-74
2021/04/06 02:19:55;;;;;;;42.62;19.45;;;;;;;1.67;68.85;98787.31;1733692;82;21175;-75
2021/04/06 02:22:23;;;;;;;43.75;18.73;;;;;;;1.67;68.77;98783.41;1734020;82;21603;-73
2021/04/06 02:24:53;;;;;;;32.55;16.32;;;;;;;1.68;68.08;98785.14;1733802;82;21639;-74
2021/04/06 02:27:29;;;;;;;46.90;18.62;;;;;;;1.69;68.12;98784.23;1733783;82;21175;-73
2021/04/06 02:30:04;;;;;;;36.48;17.45;;;;;;;1.67;68.00;98779.08;1733858;82;21152;-75
2021/04/06 02:32:34;;;;;;;38.48;15.63;;;;;;;1.67;67.95;98779.52;1734013;82;21143;-75
2021/04/06 02:35:06;;;;;;;39.48;17.27;;;;;;;1.65;67.82;98771.77;1734036;82;21445;-75
2021/04/06 02:37:37;;;;;;;37.20;17.17;;;;;;;1.66;67.79;98777.83;1733789;82;21191;-74
2021/04/06 02:42:25;;;;;;;43.87;19.07;;;;;;;1.74;67.96;98771.16;1774823;79;22862;-74
2021/04/06 02:45:13;;;;;;;42.23;18.02;;;;;;;1.70;67.96;98767.77;1747748;82;21146;-74
2021/04/06 02:47:53;;;;;;;36.68;17.62;;;;;;;1.69;68.29;98766.07;1747810;82;21371;-74
2021/04/06 02:50:24;;;;;;;37.50;18.32;;;;;;;1.70;68.22;98770.36;1720071;82;21163;-76
2021/04/06 02:52:53;;;;;;;35.30;17.73;;;;;;;1.71;67.87;98773.38;1747678;82;21167;-76
2021/04/06 02:55:23;;;;;;;33.60;15.90;;;;;;;1.72;68.23;98768.59;1748036;81;21167;-75
2021/04/06 02:57:53;;;;;;;29.60;17.42;;;;;;;1.73;67.91;98777.25;1747794;81;21623;-75
2021/04/06 03:00:31;;;;;;;24.50;14.07;;;;;;;1.74;67.99;98774.59;1747826;82;21205;-76
2021/04/06 03:03:23;;;;;;;30.30;16.07;;;;;;;1.75;67.80;98781.52;1747618;82;21631;-76
2021/04/06 03:06:11;;;;;;;36.88;17.27;;;;;;;1.75;67.74;98780.22;1747803;81;21181;-76
2021/04/06 03:08:40;;;;;;;25.08;14.10;;;;;;;1.76;67.91;98775.88;1697439;82;21159;-75
2021/04/06 03:11:11;;;;;;;23.05;12.23;;;;;;;1.75;69.61;98768.53;1747174;82;21175;-74
2021/04/06 03:13:43;;;;;;;23.67;13.58;;;;;;;1.74;68.84;98766.81;1732878;81;21200;-74
2021/04/06 03:16:11;;;;;;;25.72;13.18;;;;;;;1.76;69.12;98771.53;1719531;82;21617;-75
2021/04/06 03:18:41;;;;;;;24.05;13.13;;;;;;;1.76;68.22;98772.83;1703622;84;21176;-75
2021/04/06 03:21:11;;;;;;;28.70;14.58;;;;;;;1.76;68.01;98767.63;1703512;84;21172;-75
2021/04/06 03:23:40;;;;;;;;;;;;;;;1.77;67.87;98766.77;1706256;84;21141;-76
2021/04/06 03:26:08;;;;;;;25.90;13.05;;;;;;;1.80;67.63;98764.53;1703491;83;21378;-75
2021/04/06 03:28:39;;;;;;;28.10;14.47;;;;;;;1.80;67.86;98774.47;1703537;82;21192;-75
2021/04/06 03:31:16;;;;;;;29.67;15.43;;;;;;;1.80;67.69;98782.25;1703709;84;28496;-74
2021/04/06 03:33:46;;;;;;;37.70;15.10;;;;;;;1.81;67.70;98785.25;1703492;84;21173;-74
2021/04/06 03:36:24;;;;;;;27.90;13.83;;;;;;;1.81;67.97;98794.33;1703603;84;21196;-74
2021/04/06 03:38:55;;;;;;;38.67;18.37;;;;;;;1.81;68.83;98789.14;1703482;84;21390;-74
2021/04/06 03:41:26;;;;;;;32.67;17.07;;;;;;;1.78;68.55;98790.97;1699435;83;21556;-74
2021/04/06 03:44:11;;;;;;;29.57;14.30;;;;;;;1.81;69.20;98798.22;1696174;84;21224;-74
2021/04/06 03:46:41;;;;;;;32.60;20.27;;;;;;;1.80;68.58;98791.34;1696359;83;21220;-73
2021/04/06 03:49:22;;;;;;;31.97;14.98;;;;;;;1.82;67.87;98802.55;1681678;85;21472;-73
2021/04/06 03:52:01;;;;;;;30.60;15.90;;;;;;;1.83;67.93;98801.64;1696188;84;21947;-73
2021/04/06 03:54:44;;;;;;;31.02;16.27;;;;;;;1.88;67.85;98796.34;1695781;84;21200;-73
2021/04/06 03:57:37;;;;;;;42.93;26.77;;;;;;;1.92;67.67;98795.84;1681106;84;21617;-71
2021/04/06 04:00:09;;;;;;;37.63;20.15;;;;;;;1.96;67.76;98798.78;1695507;84;21157;-73
2021/04/06 04:02:37;;;;;;;27.20;14.13;;;;;;;2.02;68.63;98802.06;1681062;85;21189;-71
2021/04/06 04:05:07;;;;;;;24.27;13.15;;;;;;;2.07;67.10;98802.83;1691189;84;22444;-75
2021/04/06 04:07:36;;;;;;;26.60;13.68;;;;;;;2.15;67.24;98803.09;1684084;83;21167;-74
2021/04/06 04:10:09;;;;;;;31.82;14.58;;;;;;;2.22;66.66;98803.34;1683626;85;21198;-73
2021/04/06 04:12:37;;;;;;;34.35;15.80;;;;;;;2.29;66.18;98794.05;1683859;85;21218;-74
2021/04/06 04:15:06;;;;;;;25.48;14.68;;;;;;;2.42;66.17;98796.37;1683716;85;21670;-74
2021/04/06 04:17:35;;;;;;;29.02;16.27;;;;;;;2.50;65.54;98793.11;1683916;85;21698;-74
2021/04/06 04:20:11;;;;;;;32.10;16.10;;;;;;;2.52;65.27;98790.03;1683665;85;21717;-73
2021/04/06 04:22:39;;;;;;;33.65;16.23;;;;;;;2.55;65.27;98782.14;1683918;85;21197;-73
2021/04/06 04:25:09;;;;;;;25.95;14.03;;;;;;;2.59;65.60;98786.83;1683780;85;21159;-76
2021/04/06 04:27:38;;;;;;;25.75;13.88;;;;;;;2.60;65.75;98779.42;1684400;85;21200;-78
2021/04/06 04:30:08;;;;;;;26.85;15.13;;;;;;;2.65;65.82;98784.92;1688578;83;21808;-72
2021/04/06 04:32:37;;;;;;;;;;;;;;;2.68;65.53;98786.13;1687297;83;21202;-82
2021/04/06 04:35:07;;;;;;;25.00;14.10;;;;;;;2.71;66.14;98790.39;1685236;85;20293;-83
2021/04/06 04:37:35;;;;;;;38.42;15.85;;;;;;;2.73;65.99;98793.36;1685604;85;21187;-80
2021/04/06 04:40:05;;;;;;;27.52;14.78;;;;;;;2.77;66.07;98779.00;1703156;83;21155;-79
2021/04/06 04:42:35;;;;;;;28.85;16.50;;;;;;;2.82;64.87;98777.11;1718706;83;22324;-81
2021/04/06 04:45:07;;;;;;;28.92;15.60;;;;;;;2.88;64.65;98775.66;1719250;83;21202;-79
2021/04/06 04:47:36;;;;;;;27.95;15.38;;;;;;;2.92;64.21;98775.95;1719969;83;21174;-80
2021/04/06 04:50:04;;;;;;;32.00;17.67;;;;;;;2.99;64.60;98780.13;1719744;83;21170;-80
2021/04/06 04:52:32;;;;;;;29.18;14.58;;;;;;;3.06;64.03;98779.47;1719849;83;21163;-82
2021/04/06 04:55:01;;;;;;;29.60;16.52;;;;;;;3.10;63.49;98777.20;1719544;83;22434;-82
2021/04/06 04:57:29;;;;;;;27.35;15.35;;;;;;;3.15;63.33;98778.79;1715927;83;21210;-80
2021/04/06 04:59:57;;;;;;;24.92;15.03;;;;;;;3.21;63.26;98782.11;1715694;83;21171;-81
2021/04/06 05:02:25;;;;;;;31.05;15.25;;;;;;;3.24;63.24;98787.21;1720328;83;21180;-81
2021/04/06 05:04:53;;;;;;;38.95;18.73;;;;;;;3.31;63.27;98799.14;1669788;84;21915;-81
2021/04/06 05:07:21;;;;;;;34.43;16.57;;;;;;;3.36;63.72;98792.92;1691747;84;22315;-81
2021/04/06 05:09:50;;;;;;;28.85;15.98;;;;;;;3.41;62.94;98803.20;1700240;83;21131;-80
2021/04/06 05:12:18;;;;;;;36.10;16.97;;;;;;;3.48;63.61;98798.22;1713736;83;21191;-83
2021/04/06 05:14:49;;;;;;;36.68;17.37;;;;;;;3.56;64.10;98783.66;1682641;85;21194;-81
2021/04/06 05:17:17;;;;;;;36.83;17.67;;;;;;;3.67;63.51;98801.57;1719565;83;21187;-81
2021/04/06 05:19:46;;;;;;;35.60;19.40;;;;;;;3.72;61.09;98799.67;1682198;85;21229;-81
2021/04/06 05:22:14;;;;;;;36.28;20.20;;;;;;;3.72;61.09;98799.67;1719750;83;21590;-81
2021/04/06 05:24:43;;;;;;;41.53;20.27;;;;;;;3.77;60.66;98798.66;1719916;83;21115;-81
2021/04/06 05:27:12;;;;;;;39.25;20.37;;;;;;;3.77;60.66;98798.66;1695342;83;21180;-79
2021/04/06 05:29:41;;;;;;;;;;;;;;;3.91;60.40;98803.86;1716917;83;21155;-81
2021/04/06 05:32:10;;;;;;;31.65;16.30;;;;;;;4.09;59.71;98802.44;1701174;83;21390;-82
2021/04/06 05:34:38;;;;;;;40.20;18.42;;;;;;;4.19;59.77;98803.86;1702843;83;21172;-82
2021/04/06 05:37:07;;;;;;;37.63;19.23;;;;;;;4.38;58.93;98801.05;1713806;83;21131;-82
2021/04/06 05:39:36;;;;;;;34.58;17.73;;;;;;;4.43;58.72;98782.64;1713711;83;21222;-82
2021/04/06 05:42:05;;;;;;;29.80;17.15;;;;;;;4.74;57.36;98804.63;1718719;83;21222;-82
2021/04/06 05:44:33;;;;;;;35.23;19.12;;;;;;;5.05;56.87;98799.63;1705512;83;22734;-81
2021/04/06 05:47:03;;;;;;;38.78;20.97;;;;;;;5.30;56.00;98794.83;1689364;82;21175;-83
2021/04/06 05:49:33;;;;;;;44.67;22.70;;;;;;;5.63;55.04;98793.55;1733307;82;21211;-82
2021/04/06 05:52:01;;;;;;;36.08;20.30;;;;;;;6.17;53.69;98794.56;1717943;83;21171;-82
2021/04/06 05:54:31;;;;;;;27.07;15.18;;;;;;;6.70;54.03;98792.80;1697025;83;21267;-81
2021/04/06 05:56:59;;;;;;;35.13;18.82;;;;;;;7.26;50.78;98785.52;1654064;86;21820;-83
2021/04/06 05:59:27;;;;;;;36.38;18.90;;;;;;;7.64;48.60;98782.94;1689817;84;21207;-82
2021/04/06 06:01:55;;;;;;;34.20;19.92;;;;;;;7.92;48.22;98782.95;1654174;86;21218;-83
2021/04/06 06:04:25;;;;;;;37.45;19.52;;;;;;;8.08;47.97;98776.05;1699176;83;21230;-83
2021/04/06 06:06:53;;;;;;;31.60;18.45;;;;;;;8.53;47.17;98790.45;1690188;84;21175;-83
2021/04/06 06:09:34;;;;;;;34.95;20.65;;;;;;;8.99;45.06;98778.08;1711888;82;21335;-84
2021/04/06 06:12:08;;;;;;;30.52;18.60;;;;;;;9.24;44.23;98775.02;1708841;83;21183;-83
2021/04/06 06:14:42;;;;;;;36.98;20.97;;;;;;;9.42;43.85;98777.12;1703491;83;21199;-83
2021/04/06 06:17:24;;;;;;;27.95;16.95;;;;;;;9.72;43.35;98781.18;1714406;82;21191;-83
2021/04/06 06:20:00;;;;;;;32.58;17.02;;;;;;;9.93;45.26;98779.61;1708363;82;21188;-82
2021/04/06 06:22:32;;;;;;;37.45;19.57;;;;;;;10.28;43.42;98777.20;1723445;82;21264;-82
2021/04/06 06:25:12;;;;;;;28.25;16.17;;;;;;;10.55;41.87;98774.36;1713327;82;21148;-83
2021/04/06 06:27:44;;;;;;;30.37;17.05;;;;;;;10.64;39.96;98779.92;1709039;82;21207;-83
2021/04/06 06:30:37;;;;;;;34.58;19.57;;;;;;;10.58;40.57;98780.30;1712704;83;21164;-83
2021/04/06 06:33:25;;;;;;;36.13;22.05;;;;;;;10.57;40.31;98784.33;1711325;83;21786;-82
2021/04/06 06:35:56;;;;;;;30.20;17.90;;;;;;;10.79;40.49;98786.53;1715855;82;21217;-83
2021/04/06 06:38:33;;;;;;;27.50;16.52;;;;;;;10.93;40.84;98773.41;1707416;82;21650;-83
2021/04/06 06:41:21;;;;;;;26.55;17.32;;;;;;;10.98;39.14;98775.77;1713784;83;21223;-83
2021/04/06 06:43:54;;;;;;;26.75;16.00;;;;;;;11.07;42.50;98778.69;1703974;82;21199;-84
2021/04/06 06:46:29;;;;;;;26.10;15.28;;;;;;;11.19;38.79;98791.58;1708662;82;21180;-82
2021/04/06 06:49:03;;;;;;;26.00;14.95;;;;;;;11.23;38.61;98789.14;1711631;82;21456;-81
2021/04/06 06:51:35;;;;;;;21.95;14.23;;;;;;;11.31;39.17;98794.78;1707613;83;22175;-82
2021/04/06 06:54:04;;;;;;;22.37;11.88;;;;;;;11.09;38.17;98795.25;1713432;83;21155;-84
2021/04/06 06:56:41;;;;;;;22.87;14.33;;;;;;;10.81;38.03;98797.83;1710764;83;21174;-83
2021/04/06 06:59:10;;;;;;;22.98;13.20;;;;;;;10.58;39.34;98802.69;1709095;83;21195;-84
2021/04/06 07:01:38;;;;;;;24.18;14.05;;;;;;;10.37;39.46;98795.53;1671308;85;22035;-83
2021/04/06 07:04:12;;;;;;;24.50;14.05;;;;;;;10.27;39.83;98799.13;1713940;83;21904;-85
2021/04/06 07:06:45;;;;;;;27.75;14.53;;;;;;;10.28;41.33;98799.56;1718395;83;21140;-83
2021/04/06 07:09:26;;;;;;;25.23;13.95;;;;;;;10.42;39.74;98796.58;1689641;84;21180;-83
2021/04/06 07:12:01;;;;;;;27.05;15.55;;;;;;;10.59;40.08;98799.09;1689873;84;21157;-84
2021/04/06 07:14:31;;;;;;;29.40;13.90;;;;;;;11.00;39.83;98785.27;1689439;84;22117;-83
2021/04/06 07:17:03;;;;;;;23.55;13.60;;;;;;;11.44;37.96;98786.14;1692296;83;21170;-83
2021/04/06 07:19:36;;;;;;;20.15;12.25;;;;;;;11.80;37.51;98790.03;1687920;83;21614;-81
2021/04/06 07:22:05;;;;;;;32.33;12.20;;;;;;;12.01;36.16;98786.08;1698000;83;21214;-84
2021/04/06 07:24:37;;;;;;;;;;;;;;;12.27;35.87;98794.93;1702173;83;21182;-80
2021/04/06 07:27:12;;;;;;;25.50;14.23;;;;;;;12.48;36.44;98783.91;1701683;83;20678;-83
2021/04/06 07:29:41;;;;;;;21.60;13.13;;;;;;;12.78;35.94;98786.29;1701433;83;21574;-81
2021/04/06 07:32:13;;;;;;;21.17;12.18;;;;;;;13.17;34.70;98790.65;1703771;83;21239;-83
2021/04/06 07:34:43;;;;;;;18.62;12.63;;;;;;;13.50;35.44;98789.27;1698679;83;21209;-83
2021/04/06 07:37:13;;;;;;;24.52;12.20;;;;;;;13.69;34.89;98786.65;1690474;84;21204;-83
2021/04/06 07:39:40;;;;;;;22.55;13.93;;;;;;;13.79;33.97;98789.02;1689824;84;22388;-83
2021/04/06 07:42:09;;;;;;;25.02;13.08;;;;;;;13.78;32.68;98788.64;1689620;84;21262;-82
2021/04/06 07:44:38;;;;;;;26.40;13.80;;;;;;;13.58;32.05;98783.47;1689670;83;21255;-83
2021/04/06 07:47:06;;;;;;;22.93;12.80;;;;;;;13.51;33.03;98785.70;1697035;83;21138;-82
2021/04/06 07:49:37;;;;;;;34.10;12.43;;;;;;;13.47;32.93;98784.21;1689803;84;21130;-82
2021/04/06 07:52:18;;;;;;;19.67;11.12;;;;;;;13.56;32.13;98784.88;1711985;83;21451;-83
2021/04/06 07:54:49;;;;;;;21.07;11.35;;;;;;;13.70;32.47;98777.78;1696654;83;21238;-82
2021/04/06 07:57:18;;;;;;;17.93;8.73;;;;;;;13.77;32.76;98774.57;1654252;86;21245;-82
2021/04/06 07:59:51;;;;;;;24.20;11.73;;;;;;;13.72;32.05;98777.19;1689495;84;21166;-80
2021/04/06 08:02:25;;;;;;;26.17;13.18;;;;;;;13.69;33.68;98784.00;1689645;84;21222;-79
2021/04/06 08:04:59;;;;;;;31.40;14.40;;;;;;;13.78;33.82;98785.99;1697318;83;21632;-79
2021/04/06 08:10:29;;;;;;;28.12;13.75;;;;;;;13.79;31.64;98792.99;1845972;77;22743;-79
2021/04/06 08:13:00;;;;;;;23.32;12.78;;;;;;;13.81;31.61;98793.73;1818438;78;21547;-81
2021/04/06 08:15:31;;;;;;;19.77;11.83;;;;;;;13.87;31.33;98797.23;1785374;78;22208;-75
2021/04/06 08:18:01;;;;;;;20.12;11.80;;;;;;;13.87;31.38;98799.88;1792559;78;21783;-74
2021/04/06 08:20:33;;;;;;;24.45;12.07;;;;;;;13.90;31.08;98791.75;1815703;78;21151;-75
2021/04/06 08:23:09;;;;;;;26.55;11.53;;;;;;;14.00;31.91;98797.22;1812969;79;21163;-74
2021/04/06 08:25:39;;;;;;;22.77;12.60;;;;;;;14.08;32.91;98807.23;1812532;77;21146;-76
2021/04/06 08:28:32;;;;;;;22.13;11.50;;;;;;;14.25;31.21;98804.22;1813271;79;21379;-77
2021/04/06 08:31:32;;;;;;;22.52;10.93;;;;;;;14.55;33.19;98805.59;1812483;78;21092;-77
2021/04/06 08:34:31;;;;;;;19.35;10.58;;;;;;;14.71;30.12;98804.81;1785644;80;21175;-76
2021/04/06 08:37:11;;;;;;;17.35;10.60;;;;;;;14.76;29.85;98798.67;1788643;78;21649;-75
2021/04/06 08:39:40;;;;;;;17.65;10.38;;;;;;;14.78;32.26;98793.27;1808330;78;21171;-76
2021/04/06 08:42:14;;;;;;;22.95;11.95;;;;;;;15.24;31.46;98793.23;1810583;78;21195;-76
2021/04/06 08:44:40;;;;;;;18.42;10.80;;;;;;;15.57;31.00;98796.02;1799391;78;21194;-75
2021/04/06 08:47:08;;;;;;;22.62;12.00;;;;;;;15.95;30.67;98794.34;1801366;79;21188;-75
2021/04/06 08:49:42;;;;;;;14.65;9.93;;;;;;;16.27;28.83;98800.19;1795316;78;21706;-76
2021/04/06 08:52:15;;;;;;;21.10;12.80;;;;;;;16.25;28.28;98802.95;1792602;78;21609;-77
2021/04/06 08:54:43;;;;;;;19.62;11.28;;;;;;;16.04;28.89;98795.42;1809227;77;21801;-77
2021/04/06 08:57:12;;;;;;;22.15;12.60;;;;;;;15.97;28.28;98789.75;1806327;78;21226;-76
2021/04/06 08:59:42;;;;;;;24.00;9.53;;;;;;;16.11;29.01;98791.30;1812368;78;21099;-76
2021/04/06 09:02:16;;;;;;;17.77;9.88;;;;;;;16.29;27.22;98782.31;1809597;78;21214;-81
2021/04/06 09:04:49;;;;;;;26.45;10.32;;;;;;;15.94;27.87;98789.52;1812600;78;21167;-76
2021/04/06 09:07:22;;;;;;;20.68;9.95;;;;;;;15.80;27.95;98791.09;1805898;78;21955;-76
2021/04/06 09:10:00;;;;;;;25.75;10.68;;;;;;;15.61;27.82;98793.01;1817107;78;21635;-75
2021/04/06 09:12:28;;;;;;;19.48;8.75;;;;;;;15.75;28.20;98789.78;1819597;78;21123;-76
2021/04/06 09:14:56;;;;;;;22.85;10.00;;;;;;;15.99;27.85;98786.50;1774923;79;21670;-76
2021/04/06 09:17:33;;;;;;;18.75;9.05;;;;;;;16.11;27.38;98778.85;1713399;82;21179;-75
2021/04/06 09:20:14;;;;;;;17.32;9.30;;;;;;;16.28;26.83;98780.61;1747142;81;22283;-77
2021/04/06 09:22:52;;;;;;;32.05;9.80;;;;;;;16.09;26.16;98779.45;1777853;80;21202;-76
2021/04/06 09:25:27;;;;;;;22.93;10.25;;;;;;;16.29;27.09;98773.02;1768158;79;21158;-75
2021/04/06 09:28:01;;;;;;;15.08;7.70;;;;;;;16.70;26.01;98772.70;1773950;79;21163;-76
2021/04/06 09:30:32;;;;;;;13.60;7.28;;;;;;;16.63;25.33;98771.53;1769748;80;21716;-75
2021/04/06 09:33:05;;;;;;;20.00;8.58;;;;;;;16.72;24.92;98777.41;1733172;81;22115;-76
2021/04/06 09:35:33;;;;;;;13.30;6.65;;;;;;;16.80;26.94;98773.66;1745361;81;21218;-76
2021/04/06 09:38:03;;;;;;;11.70;6.10;;;;;;;16.88;23.14;98779.15;1775373;80;21182;-76
2021/04/06 09:40:38;;;;;;;10.48;6.40;;;;;;;16.85;23.94;98774.10;1768691;80;21182;-77
2021/04/06 09:43:07;;;;;;;15.50;7.90;;;;;;;16.87;24.37;98769.50;1775929;80;21108;-77
2021/04/06 09:45:36;;;;;;;13.60;6.42;;;;;;;16.67;24.39;98771.63;1767059;80;21320;-77
2021/04/06 09:48:06;;;;;;;12.40;6.62;;;;;;;16.65;23.63;98772.24;1784030;80;21206;-76
2021/04/06 09:50:34;;;;;;;14.30;6.60;;;;;;;16.45;23.97;98772.56;1784884;80;21171;-76
2021/04/06 09:53:02;;;;;;;10.13;5.95;;;;;;;16.40;24.38;98770.78;1784710;80;21747;-77
2021/04/06 09:55:30;;;;;;;13.95;6.65;;;;;;;16.82;23.90;98766.40;1755584;80;22155;-76
2021/04/06 09:58:02;;;;;;;11.70;6.70;;;;;;;17.17;23.56;98765.20;1784488;80;22389;-76
2021/04/06 10:00:32;;;;;;;16.48;6.95;;;;;;;17.70;23.41;98758.34;1779477;79;21114;-76
2021/04/06 10:03:10;;;;;;;11.35;7.15;;;;;;;18.15;22.71;98757.92;1753590;79;21199;-77
2021/04/06 10:05:43;;;;;;;12.43;7.30;;;;;;;18.48;22.69;98759.83;1757525;80;21158;-78
2021/04/06 10:08:12;;;;;;;14.28;7.70;;;;;;;18.23;22.46;98762.05;1764139;80;21682;-78
2021/04/06 10:10:49;;;;;;;16.57;7.72;;;;;;;17.70;22.92;98754.84;1762629;80;21245;-78
2021/04/06 10:13:17;;;;;;;14.68;7.90;;;;;;;17.30;23.61;98752.99;1767322;80;21191;-79
2021/04/06 10:15:45;;;;;;;16.17;7.83;;;;;;;17.32;25.54;98745.27;1760680;80;21637;-78
2021/04/06 10:18:16;;;;;;;11.97;7.40;;;;;;;17.72;24.81;98749.73;1769572;80;21226;-78
2021/04/06 10:20:48;;;;;;;9.30;6.12;;;;;;;17.82;23.77;98744.46;1755046;80;21148;-78
2021/04/06 10:23:32;;;;;;;10.05;6.75;;;;;;;17.61;22.74;98748.02;1773540;79;21210;-78
2021/04/06 10:26:01;;;;;;;17.20;7.33;;;;;;;17.24;23.72;98745.07;1775563;80;21477;-78
2021/04/06 10:28:31;;;;;;;14.95;6.85;;;;;;;17.35;23.40;98743.66;1755523;80;21200;-77
2021/04/06 10:31:02;;;;;;;12.10;6.80;;;;;;;17.37;23.31;98744.86;1753635;80;21163;-77
2021/04/06 10:33:35;;;;;;;12.25;7.28;;;;;;;17.12;23.49;98739.49;1766337;80;22369;-77
2021/04/06 10:36:17;;;;;;;14.13;7.72;;;;;;;17.02;24.12;98744.73;1765945;80;22257;-77
2021/04/06 10:38:45;;;;;;;10.32;6.50;;;;;;;16.93;25.71;98734.42;1751525;81;21339;-76
2021/04/06 10:41:18;;;;;;;13.03;6.85;;;;;;;17.24;25.81;98727.78;1783181;80;21175;-77
2021/04/06 10:43:51;;;;;;;21.90;7.10;;;;;;;17.64;25.76;98722.94;1734191;82;21698;-78
2021/04/06 10:49:05;;;;;;;15.63;6.78;;;;;;;18.73;22.22;98707.75;1827556;76;23390;-77
2021/04/06 10:51:35;;;;;;;15.45;6.65;;;;;;;18.80;21.86;98710.72;1809719;79;21202;-75
2021/04/06 10:54:11;;;;;;;16.23;6.70;;;;;;;18.16;22.71;98718.30;1810230;78;22248;-75
2021/04/06 10:56:49;;;;;;;18.45;6.75;;;;;;;17.80;23.12;98717.92;1809212;79;21705;-75
2021/04/06 10:59:32;;;;;;;9.70;5.90;;;;;;;17.45;22.87;98720.23;1794723;79;21117;-77
2021/04/06 11:02:01;;;;;;;12.78;6.53;;;;;;;16.86;22.94;98721.27;1797030;79;21191;-74
2021/04/06 11:04:31;;;;;;;21.07;8.00;;;;;;;16.75;23.88;98730.64;1807435;79;21147;-76
2021/04/06 11:07:03;;;;;;;12.50;6.80;;;;;;;16.56;25.68;98705.62;1785574;80;22262;-76
2021/04/06 11:09:41;;;;;;;11.22;5.90;;;;;;;16.43;24.32;98703.63;1786809;79;21167;-76
2021/04/06 11:12:11;;;;;;;12.23;7.67;;;;;;;16.55;24.46;98706.58;1806746;78;21032;-76
2021/04/06 11:14:44;;;;;;;16.97;6.80;;;;;;;16.64;23.96;98709.44;1777138;79;21206;-75
2021/04/06 11:17:13;;;;;;;10.70;6.97;;;;;;;16.58;24.05;98700.98;1776122;79;21676;-75
2021/04/06 11:19:46;;;;;;;12.80;6.58;;;;;;;16.45;23.63;98703.02;1768760;80;21195;-75
2021/04/06 11:22:17;;;;;;;12.33;6.70;;;;;;;16.38;24.26;98709.83;1766027;80;21174;-76
2021/04/06 11:24:48;;;;;;;12.50;6.40;;;;;;;15.79;24.21;98710.27;1783026;80;21166;-76
2021/04/06 11:27:19;;;;;;;34.88;18.77;;;;;;;15.63;25.65;98706.16;1779116;80;21700;-76
2021/04/06 11:29:48;;;;;;;13.08;7.25;;;;;;;15.78;25.36;98697.95;1767449;80;21131;-75
2021/04/06 11:32:19;;;;;;;14.18;7.17;;;;;;;15.91;24.83;98690.68;1771975;80;21808;-74
2021/04/06 11:34:50;;;;;;;14.00;5.37;;;;;;;16.17;24.93;98694.32;1746213;77;21846;-71
2021/04/06 11:37:18;;;;;;;10.60;5.58;;;;;;;16.25;23.18;98705.17;1730069;81;21276;-72
2021/04/06 11:39:47;;;;;;;11.00;5.35;;;;;;;16.27;23.58;98691.28;1715480;82;21207;-71
2021/04/06 11:42:17;;;;;;;14.93;7.28;;;;;;;16.52;23.71;98677.61;1738041;81;21147;-71
2021/04/06 11:44:45;;;;;;;11.78;6.22;;;;;;;16.57;24.12;98678.06;1698717;83;21413;-73
2021/04/06 11:47:13;;;;;;;9.33;6.33;;;;;;;16.58;24.19;98702.81;1738261;81;21160;-72
2021/04/06 11:49:41;;;;;;;14.53;6.78;;;;;;;16.38;23.99;98693.88;1707908;80;21229;-76
2021/04/06 11:52:10;;;;;;;11.70;7.10;;;;;;;16.20;23.78;98682.14;1710891;83;21189;-76
2021/04/06 11:54:41;;;;;;;11.65;6.95;;;;;;;16.17;24.51;98688.52;1703328;83;22432;-77